createdAt,value
2019-04-07T00:00:14.326Z,11.69
2019-04-07T00:01:13.742Z,11.73
2019-04-07T00:02:14.182Z,11.70
2019-04-07T00:03:13.736Z,11.63
2019-04-07T00:04:13.721Z,11.54
2019-04-07T00:05:14.681Z,11.59
2019-04-07T00:06:13.520Z,11.62
2019-04-07T00:07:13.814Z,11.50
2019-04-07T00:08:13.504Z,11.48
2019-04-07T00:09:13.592Z,11.51
2019-04-07T00:10:13.495Z,11.51
2019-04-07T00:11:13.931Z,11.52
2019-04-07T00:12:13.800Z,11.51
2019-04-07T00:13:13.672Z,11.51
2019-04-07T00:14:13.899Z,11.52
2019-04-07T00:15:13.971Z,11.48
2019-04-07T00:16:13.529Z,11.60
2019-04-07T00:17:13.814Z,11.54
2019-04-07T00:18:13.469Z,11.50
2019-04-07T00:19:13.690Z,11.48
2019-04-07T00:20:13.811Z,11.51
2019-04-07T00:21:13.690Z,11.54
2019-04-07T00:22:13.463Z,11.47
2019-04-07T00:23:13.461Z,11.51
2019-04-07T00:24:13.647Z,11.54
2019-04-07T00:25:13.457Z,11.47
2019-04-07T00:26:13.444Z,11.47
2019-04-07T00:27:14.386Z,11.44
2019-04-07T00:28:13.440Z,11.43
2019-04-07T00:29:13.436Z,11.36
2019-04-07T00:30:13.723Z,11.36
2019-04-07T00:31:13.460Z,11.40
2019-04-07T00:32:14.074Z,11.32
2019-04-07T00:33:13.615Z,11.35
2019-04-07T00:34:13.404Z,11.35
2019-04-07T00:35:23.225Z,11.29
2019-04-07T00:36:13.404Z,11.30
2019-04-07T00:37:14.076Z,11.35
2019-04-07T00:38:13.911Z,11.30
2019-04-07T00:39:13.385Z,11.25
2019-04-07T00:40:13.379Z,11.26
2019-04-07T00:41:13.382Z,11.26
2019-04-07T00:42:13.563Z,11.25
2019-04-07T00:43:13.713Z,11.26
2019-04-07T00:44:13.401Z,11.25
2019-04-07T00:45:13.984Z,11.27
2019-04-07T00:46:13.638Z,11.32
2019-04-07T00:47:13.356Z,11.32
2019-04-07T00:48:13.369Z,11.32
2019-04-07T00:49:13.350Z,11.35
2019-04-07T00:50:13.360Z,11.37
2019-04-07T00:51:13.378Z,11.37
2019-04-07T00:52:13.985Z,11.36
2019-04-07T00:53:13.452Z,11.33
2019-04-07T00:54:13.549Z,11.36
2019-04-07T00:55:13.323Z,11.44
2019-04-07T00:56:13.322Z,11.41
2019-04-07T00:57:14.300Z,11.41
2019-04-07T00:58:13.732Z,11.43
2019-04-07T00:59:13.307Z,11.47
2019-04-07T01:00:13.341Z,11.44
2019-04-07T01:01:13.302Z,11.45
2019-04-07T01:02:13.302Z,11.44
2019-04-07T01:03:13.683Z,11.43
2019-04-07T01:04:13.802Z,11.43
2019-04-07T01:05:13.827Z,11.40
2019-04-07T01:06:13.289Z,11.47
2019-04-07T01:07:13.293Z,11.35
2019-04-07T01:08:13.908Z,11.36
2019-04-07T01:09:13.357Z,11.32
2019-04-07T01:10:14.049Z,11.32
2019-04-07T01:11:13.495Z,11.35
2019-04-07T01:12:13.933Z,11.29
2019-04-07T01:13:13.277Z,11.25
2019-04-07T01:14:13.589Z,11.27
2019-04-07T01:15:13.251Z,11.25
2019-04-07T01:16:13.245Z,11.27
2019-04-07T01:18:57.291Z,11.17
2019-04-07T01:19:57.485Z,11.11
2019-04-07T01:20:57.485Z,11.15
2019-04-07T01:21:57.344Z,11.15
2019-04-07T01:22:57.373Z,11.15
2019-04-07T01:23:57.854Z,11.14
2019-04-07T01:24:57.474Z,11.12
2019-04-07T01:25:57.358Z,11.17
2019-04-07T01:26:57.456Z,11.04
2019-04-07T01:27:57.800Z,11.07
2019-04-07T01:28:57.259Z,11.08
2019-04-07T01:29:57.249Z,11.12
2019-04-07T01:30:57.933Z,11.11
2019-04-07T01:31:57.236Z,11.18
2019-04-07T01:32:57.545Z,11.15
2019-04-07T01:33:57.243Z,11.12
2019-04-07T01:34:57.236Z,11.04
2019-04-07T01:35:57.282Z,11.11
2019-04-07T01:36:57.703Z,11.15
2019-04-07T01:37:57.214Z,11.18
2019-04-07T01:38:57.556Z,11.10
2019-04-07T01:39:57.221Z,11.05
2019-04-07T01:40:57.404Z,11.12
2019-04-07T01:41:57.416Z,11.18
2019-04-07T01:42:57.225Z,11.11
2019-04-07T01:43:57.452Z,11.17
2019-04-07T01:44:57.352Z,11.15
2019-04-07T01:45:57.185Z,11.25
2019-04-07T01:46:57.182Z,11.23
2019-04-07T01:47:57.383Z,11.29
2019-04-07T01:48:57.508Z,11.19
2019-04-07T01:49:57.773Z,11.29
2019-04-07T01:50:57.231Z,11.29
2019-04-07T01:51:57.630Z,11.35
2019-04-07T01:52:57.155Z,11.25
2019-04-07T01:53:57.407Z,11.40
2019-04-07T01:54:57.519Z,11.36
2019-04-07T01:55:57.572Z,11.36
2019-04-07T01:56:58.037Z,11.36
2019-04-07T01:57:57.132Z,11.36
2019-04-07T01:58:57.360Z,11.37
2019-04-07T01:59:57.398Z,11.44
2019-04-07T02:00:57.599Z,11.47
2019-04-07T02:01:57.337Z,11.47
2019-04-07T02:02:57.330Z,11.47
2019-04-07T02:03:57.287Z,11.41
2019-04-07T02:04:57.123Z,11.40
2019-04-07T02:06:01.520Z,11.41
2019-04-07T02:06:57.576Z,11.36
2019-04-07T02:07:57.119Z,11.43
2019-04-07T02:08:57.147Z,11.36
2019-04-07T02:09:57.289Z,11.40
2019-04-07T02:10:57.183Z,11.36
2019-04-07T02:11:57.085Z,11.43
2019-04-07T02:12:57.764Z,11.44
2019-04-07T02:13:57.081Z,11.44
2019-04-07T02:14:57.496Z,11.45
2019-04-07T02:15:57.737Z,11.43
2019-04-07T02:16:57.798Z,11.36
2019-04-07T02:17:57.097Z,11.43
2019-04-07T02:18:57.053Z,11.36
2019-04-07T02:19:57.147Z,11.43
2019-04-07T02:20:57.658Z,11.50
2019-04-07T02:21:57.041Z,11.37
2019-04-07T02:22:57.388Z,11.40
2019-04-07T02:23:57.571Z,11.27
2019-04-07T02:24:57.570Z,11.32
2019-04-07T02:25:57.036Z,11.26
2019-04-07T02:26:57.649Z,11.15
2019-04-07T02:27:57.059Z,11.19
2019-04-07T02:28:57.230Z,11.18
2019-04-07T02:29:57.014Z,11.15
2019-04-07T02:30:57.390Z,11.15
2019-04-07T02:31:57.069Z,11.12
2019-04-07T02:32:58.098Z,11.10
2019-04-07T02:33:57.487Z,10.99
2019-04-07T02:34:57.497Z,10.96
2019-04-07T02:36:12.197Z,10.99
2019-04-07T02:36:58.124Z,10.92
2019-04-07T02:37:57.065Z,10.90
2019-04-07T02:38:58.064Z,10.89
2019-04-07T02:39:57.181Z,10.79
2019-04-07T02:40:57.176Z,10.74
2019-04-07T02:41:57.188Z,10.78
2019-04-07T02:42:57.528Z,10.79
2019-04-07T02:43:56.992Z,10.79
2019-04-07T02:44:57.377Z,10.78
2019-04-07T02:45:57.901Z,10.72
2019-04-07T02:46:56.947Z,10.71
2019-04-07T02:47:57.662Z,10.90
2019-04-07T02:48:57.770Z,10.82
2019-04-07T02:49:56.967Z,10.86
2019-04-07T02:50:57.221Z,10.81
2019-04-07T02:51:57.148Z,10.82
2019-04-07T02:52:57.197Z,10.79
2019-04-07T02:53:57.111Z,10.74
2019-04-07T02:54:57.303Z,10.72
2019-04-07T02:55:57.219Z,10.76
2019-04-07T02:56:56.910Z,10.78
2019-04-07T02:57:56.906Z,10.63
2019-04-07T02:58:56.913Z,10.64
2019-04-07T02:59:57.840Z,10.69
2019-04-07T03:00:57.727Z,10.64
2019-04-07T03:01:57.453Z,10.68
2019-04-07T03:02:57.984Z,10.56
2019-04-07T03:03:57.702Z,10.57
2019-04-07T03:04:56.900Z,10.56
2019-04-07T03:05:57.086Z,10.59
2019-04-07T03:06:57.082Z,10.56
2019-04-07T03:07:57.069Z,10.53
2019-04-07T03:08:57.243Z,10.56
2019-04-07T03:09:56.889Z,10.53
2019-04-07T03:10:57.116Z,10.42
2019-04-07T03:11:57.744Z,10.40
2019-04-07T03:12:57.525Z,10.46
2019-04-07T03:13:57.158Z,10.33
2019-04-07T03:14:56.850Z,10.33
2019-04-07T03:15:57.758Z,10.26
2019-04-07T03:16:57.782Z,10.35
2019-04-07T03:17:57.310Z,10.25
2019-04-07T03:18:57.938Z,10.37
2019-04-07T03:19:56.815Z,10.25
2019-04-07T03:20:56.834Z,10.25
2019-04-07T03:21:57.799Z,10.23
2019-04-07T03:22:56.934Z,10.07
2019-04-07T03:23:57.025Z,10.16
2019-04-07T03:24:57.017Z,10.10
2019-04-07T03:25:58.067Z,10.10
2019-04-07T03:26:56.806Z,9.95
2019-04-07T03:27:57.300Z,9.92
2019-04-07T03:28:57.768Z,9.91
2019-04-07T03:29:56.787Z,9.91
2019-04-07T03:30:59.228Z,9.82
2019-04-07T03:31:59.595Z,9.79
2019-04-07T03:32:58.090Z,9.66
2019-04-07T03:33:58.778Z,9.66
2019-04-07T03:34:58.120Z,9.69
2019-04-07T03:36:01.096Z,9.69
2019-04-07T03:37:26.949Z,9.64
2019-04-07T03:37:57.219Z,9.50
2019-04-07T03:38:57.695Z,9.47
2019-04-07T03:39:56.977Z,9.44
2019-04-07T03:40:56.992Z,9.44
2019-04-07T03:41:56.725Z,9.40
2019-04-07T03:42:57.381Z,9.36
2019-04-07T03:43:57.086Z,9.31
2019-04-07T03:44:56.800Z,9.36
2019-04-07T03:45:57.233Z,9.26
2019-04-07T03:46:57.211Z,9.23
2019-04-07T03:47:56.817Z,9.22
2019-04-07T03:48:57.848Z,9.22
2019-04-07T03:49:57.035Z,9.25
2019-04-07T03:50:56.928Z,9.25
2019-04-07T03:51:56.679Z,9.26
2019-04-07T03:52:56.800Z,9.31
2019-04-07T03:53:56.683Z,9.31
2019-04-07T03:54:57.104Z,9.32
2019-04-07T03:55:57.763Z,9.28
2019-04-07T03:56:56.714Z,9.23
2019-04-07T03:57:56.958Z,9.21
2019-04-07T03:58:56.676Z,9.29
2019-04-07T03:59:57.688Z,9.26
2019-04-07T04:00:56.873Z,9.28
2019-04-07T04:01:57.462Z,9.25
2019-04-07T04:02:56.796Z,9.23
2019-04-07T04:03:56.838Z,9.22
2019-04-07T04:04:57.559Z,9.21
2019-04-07T04:05:57.252Z,9.22
2019-04-07T04:06:56.890Z,9.11
2019-04-07T04:07:56.840Z,9.19
2019-04-07T04:08:56.606Z,9.13
2019-04-07T04:09:56.609Z,9.03
2019-04-07T04:10:56.816Z,8.92
2019-04-07T04:11:56.610Z,8.85
2019-04-07T04:12:56.642Z,8.95
2019-04-07T04:13:56.588Z,8.85
2019-04-07T04:14:56.931Z,8.91
2019-04-07T04:15:56.749Z,8.82
2019-04-07T04:16:57.792Z,8.87
2019-04-07T04:17:57.333Z,8.88
2019-04-07T04:18:56.900Z,8.94
2019-04-07T04:19:57.365Z,8.79
2019-04-07T04:20:57.246Z,8.81
2019-04-07T04:21:56.694Z,8.69
2019-04-07T04:22:57.195Z,8.67
2019-04-07T04:23:57.633Z,8.56
2019-04-07T04:24:57.558Z,8.56
2019-04-07T04:25:56.540Z,8.52
2019-04-07T04:26:57.097Z,8.37
2019-04-07T04:27:56.990Z,8.49
2019-04-07T04:28:56.664Z,8.36
2019-04-07T04:29:56.776Z,8.48
2019-04-07T04:30:56.766Z,8.42
2019-04-07T04:31:57.173Z,8.37
2019-04-07T04:32:56.713Z,8.41
2019-04-07T04:33:56.500Z,8.37
2019-04-07T04:34:57.458Z,8.28
2019-04-07T04:35:56.506Z,8.26
2019-04-07T04:36:56.558Z,8.24
2019-04-07T04:37:56.883Z,8.16
2019-04-07T04:38:56.470Z,8.10
2019-04-07T04:39:57.335Z,8.05
2019-04-07T04:40:56.935Z,8.13
2019-04-07T04:41:56.468Z,8.01
2019-04-07T04:42:57.006Z,8.00
2019-04-07T04:43:56.630Z,7.94
2019-04-07T04:44:56.576Z,7.90
2019-04-07T04:45:56.879Z,7.87
2019-04-07T04:46:56.434Z,7.90
2019-04-07T04:47:56.431Z,7.73
2019-04-07T04:48:56.758Z,7.63
2019-04-07T04:49:56.410Z,7.63
2019-04-07T04:50:56.407Z,7.69
2019-04-07T04:51:57.166Z,7.66
2019-04-07T04:52:56.496Z,7.51
2019-04-07T04:53:56.593Z,7.63
2019-04-07T04:54:57.098Z,7.58
2019-04-07T04:55:56.394Z,7.50
2019-04-07T04:56:56.942Z,7.53
2019-04-07T04:57:56.657Z,7.48
2019-04-07T04:58:56.607Z,7.60
2019-04-07T04:59:56.361Z,7.50
2019-04-07T05:00:56.528Z,7.50
2019-04-07T05:01:56.514Z,7.50
2019-04-07T05:02:57.152Z,7.53
2019-04-07T05:03:56.357Z,7.56
2019-04-07T05:04:57.370Z,7.67
2019-04-07T05:05:56.430Z,7.67
2019-04-07T05:06:57.041Z,7.61
2019-04-07T05:08:02.890Z,7.70
2019-04-07T05:08:56.551Z,7.60
2019-04-07T05:09:56.779Z,7.58
2019-04-07T05:10:56.554Z,7.67
2019-04-07T05:11:56.516Z,7.53
2019-04-07T05:12:56.297Z,7.51
2019-04-07T05:13:56.287Z,7.51
2019-04-07T05:14:56.284Z,7.42
2019-04-07T05:15:56.280Z,7.40
2019-04-07T05:16:56.297Z,7.32
2019-04-07T05:17:56.275Z,7.25
2019-04-07T05:18:56.256Z,7.24
2019-04-07T05:19:56.607Z,7.31
2019-04-07T05:20:56.377Z,7.31
2019-04-07T05:21:57.050Z,7.38
2019-04-07T05:22:56.240Z,7.42
2019-04-07T05:23:56.456Z,7.39
2019-04-07T05:24:56.684Z,7.45
2019-04-07T05:25:56.233Z,7.53
2019-04-07T05:26:56.233Z,7.45
2019-04-07T05:27:57.004Z,7.48
2019-04-07T05:28:56.213Z,7.50
2019-04-07T05:29:56.715Z,7.50
2019-04-07T05:30:56.903Z,7.48
2019-04-07T05:31:56.628Z,7.39
2019-04-07T05:32:57.373Z,7.39
2019-04-07T05:33:56.574Z,7.38
2019-04-07T05:34:56.730Z,7.47
2019-04-07T05:35:56.184Z,7.45
2019-04-07T05:36:56.226Z,7.50
2019-04-07T05:38:02.714Z,7.54
2019-04-07T05:38:56.324Z,7.61
2019-04-07T05:39:56.550Z,7.67
2019-04-07T05:40:56.453Z,7.75
2019-04-07T05:41:56.260Z,7.63
2019-04-07T05:42:56.154Z,7.63
2019-04-07T05:43:56.123Z,7.69
2019-04-07T05:44:56.143Z,7.76
2019-04-07T05:45:56.388Z,7.73
2019-04-07T05:46:56.960Z,7.83
2019-04-07T05:47:56.110Z,7.87
2019-04-07T05:48:56.668Z,7.94
2019-04-07T05:49:58.766Z,7.91
2019-04-07T05:50:58.950Z,7.97
2019-04-07T05:51:56.634Z,8.05
2019-04-07T05:52:56.535Z,8.03
2019-04-07T05:53:56.077Z,8.09
2019-04-07T05:54:56.284Z,8.16
2019-04-07T05:55:56.293Z,8.16
2019-04-07T05:56:58.766Z,8.24
2019-04-07T05:57:56.060Z,8.27
2019-04-07T05:58:56.057Z,8.28
2019-04-07T05:59:56.036Z,8.38
2019-04-07T06:00:56.990Z,8.38
2019-04-07T06:02:01.242Z,8.45
2019-04-07T06:02:56.114Z,8.48
2019-04-07T06:03:56.631Z,8.45
2019-04-07T06:04:58.519Z,8.53
2019-04-07T06:05:56.159Z,8.58
2019-04-07T06:06:56.406Z,8.56
2019-04-07T06:07:55.994Z,8.66
2019-04-07T06:08:55.993Z,8.73
2019-04-07T06:09:56.016Z,8.81
2019-04-07T06:10:59.957Z,8.82
2019-04-07T06:11:56.174Z,8.89
2019-04-07T06:12:56.513Z,8.91
2019-04-07T06:13:56.556Z,8.95
2019-04-07T06:14:56.416Z,8.99
2019-04-07T06:15:56.509Z,9.02
2019-04-07T06:16:56.034Z,9.13
2019-04-07T06:17:59.573Z,9.06
2019-04-07T06:18:56.537Z,9.21
2019-04-07T06:19:56.805Z,9.14
2019-04-07T06:20:56.441Z,9.29
2019-04-07T06:21:55.940Z,9.28
2019-04-07T06:22:56.474Z,9.44
2019-04-07T06:23:59.405Z,9.46
2019-04-07T06:24:56.120Z,9.59
2019-04-07T06:25:58.728Z,9.68
2019-04-07T06:26:56.545Z,9.79
2019-04-07T06:27:56.689Z,9.84
2019-04-07T06:28:58.504Z,9.89
2019-04-07T06:29:59.605Z,9.97
2019-04-07T06:30:59.427Z,10.05
2019-04-07T06:31:56.271Z,10.13
2019-04-07T06:32:55.881Z,10.17
2019-04-07T06:33:55.858Z,10.13
2019-04-07T06:34:55.862Z,10.28
2019-04-07T06:35:56.195Z,10.22
2019-04-07T06:36:56.525Z,10.22
2019-04-07T06:37:59.376Z,10.37
2019-04-07T06:38:55.847Z,10.41
2019-04-07T06:39:55.841Z,10.48
2019-04-07T06:40:57.766Z,10.44
2019-04-07T06:41:58.957Z,10.42
2019-04-07T06:42:55.852Z,10.56
2019-04-07T06:44:07.699Z,10.57
2019-04-07T06:44:56.675Z,10.76
2019-04-07T06:45:56.339Z,10.82
2019-04-07T06:46:59.194Z,10.89
2019-04-07T06:47:56.292Z,10.96
2019-04-07T06:48:56.036Z,10.99
2019-04-07T06:49:56.398Z,11.04
2019-04-07T06:50:58.921Z,11.15
2019-04-07T06:51:55.808Z,11.23
2019-04-07T06:52:55.784Z,11.37
2019-04-07T06:53:55.791Z,11.45
2019-04-07T06:54:56.274Z,11.51
2019-04-07T06:55:58.440Z,11.54
2019-04-07T06:56:56.511Z,11.70
2019-04-07T06:57:55.745Z,11.80
2019-04-07T06:58:55.947Z,11.88
2019-04-07T06:59:56.738Z,11.99
2019-04-07T07:00:56.835Z,12.17
2019-04-07T07:01:58.143Z,12.25
2019-04-07T07:02:56.498Z,12.29
2019-04-07T07:03:56.325Z,12.42
2019-04-07T07:04:56.148Z,12.53
2019-04-07T07:05:56.176Z,12.55
2019-04-07T07:06:55.766Z,12.65
2019-04-07T07:07:56.370Z,12.80
2019-04-07T07:08:57.302Z,12.86
2019-04-07T07:09:59.722Z,12.87
2019-04-07T07:10:56.314Z,13.08
2019-04-07T07:11:56.120Z,13.22
2019-04-07T07:13:00.785Z,13.50
2019-04-07T07:13:55.698Z,13.52
2019-04-07T07:14:56.127Z,13.71
2019-04-07T07:15:55.724Z,13.87
2019-04-07T07:16:56.480Z,13.86
2019-04-07T07:17:58.604Z,14.04
2019-04-07T07:18:56.029Z,14.04
2019-04-07T07:19:57.372Z,14.10
2019-04-07T07:20:55.734Z,14.14
2019-04-07T07:21:55.797Z,14.15
2019-04-07T07:22:56.147Z,14.20
2019-04-07T07:23:55.847Z,14.18
2019-04-07T07:24:59.018Z,14.28
2019-04-07T07:25:55.646Z,14.50
2019-04-07T07:26:57.750Z,14.43
2019-04-07T07:27:55.648Z,14.51
2019-04-07T07:28:56.020Z,14.51
2019-04-07T07:29:55.637Z,14.50
2019-04-07T07:30:55.754Z,14.48
2019-04-07T07:32:00.895Z,14.41
2019-04-07T07:32:56.428Z,14.40
2019-04-07T07:33:56.122Z,14.22
2019-04-07T07:34:55.616Z,14.30
2019-04-07T07:35:55.621Z,14.26
2019-04-07T07:36:57.789Z,14.29
2019-04-07T07:37:57.442Z,14.33
2019-04-07T07:39:01.303Z,14.32
2019-04-07T07:39:55.598Z,14.40
2019-04-07T07:40:55.799Z,14.37
2019-04-07T07:41:56.670Z,14.53
2019-04-07T07:42:58.132Z,14.54
2019-04-07T07:44:00.364Z,14.51
2019-04-07T07:44:56.011Z,14.50
2019-04-07T07:45:55.661Z,14.54
2019-04-07T07:46:55.579Z,14.53
2019-04-07T07:47:55.578Z,14.55
2019-04-07T07:48:59.005Z,14.44
2019-04-07T07:49:55.569Z,14.32
2019-04-07T07:50:55.814Z,14.26
2019-04-07T07:51:55.999Z,14.12
2019-04-07T07:52:56.182Z,14.07
2019-04-07T07:53:58.571Z,14.03
2019-04-07T07:54:59.819Z,14.04
2019-04-07T07:55:55.583Z,14.00
2019-04-07T07:56:55.922Z,13.97
2019-04-07T07:57:58.964Z,14.04
2019-04-07T07:58:55.587Z,14.12
2019-04-07T07:59:56.404Z,14.32
2019-04-07T08:00:55.706Z,14.51
2019-04-07T08:01:56.243Z,14.65
2019-04-07T08:02:55.793Z,14.82
2019-04-07T08:03:55.888Z,14.85
2019-04-07T08:04:57.909Z,15.06
2019-04-07T08:05:55.524Z,15.35
2019-04-07T08:06:55.521Z,15.47
2019-04-07T08:07:56.121Z,15.61
2019-04-07T08:09:07.735Z,15.84
2019-04-07T08:09:56.777Z,16.01
2019-04-07T08:10:58.533Z,16.13
2019-04-07T08:11:55.532Z,16.16
2019-04-07T08:12:56.261Z,16.26
2019-04-07T08:13:55.531Z,16.36
2019-04-07T08:14:57.519Z,16.33
2019-04-07T08:15:57.196Z,16.39
2019-04-07T08:16:55.521Z,16.33
2019-04-07T08:17:56.294Z,16.31
2019-04-07T08:18:58.544Z,16.24
2019-04-07T08:19:55.711Z,16.28
2019-04-07T08:20:55.518Z,16.29
2019-04-07T08:21:55.523Z,16.28
2019-04-07T08:22:56.163Z,16.28
2019-04-07T08:23:55.714Z,16.36
2019-04-07T08:24:55.622Z,16.35
2019-04-07T08:25:57.121Z,16.43
2019-04-07T08:26:57.177Z,16.61
2019-04-07T08:27:55.501Z,16.75
2019-04-07T08:28:55.484Z,17.01
2019-04-07T08:29:56.064Z,16.94
2019-04-07T08:30:55.730Z,17.14
2019-04-07T08:31:55.568Z,17.31
2019-04-07T08:32:58.599Z,17.49
2019-04-07T08:33:55.929Z,17.57
2019-04-07T08:34:55.913Z,17.60
2019-04-07T08:35:56.194Z,17.59
2019-04-07T08:36:55.585Z,17.54
2019-04-07T08:37:55.672Z,17.65
2019-04-07T08:38:56.849Z,17.64
2019-04-07T08:39:57.002Z,17.70
2019-04-07T08:40:55.479Z,17.72
2019-04-07T08:41:56.077Z,17.68
2019-04-07T08:42:56.110Z,17.64
2019-04-07T08:43:57.573Z,17.74
2019-04-07T08:44:58.602Z,17.78
2019-04-07T08:45:55.461Z,17.70
2019-04-07T08:46:57.854Z,17.83
2019-04-07T08:47:55.497Z,17.90
2019-04-07T08:48:55.494Z,17.82
2019-04-07T08:49:57.671Z,17.80
2019-04-07T08:50:58.708Z,17.86
2019-04-07T08:51:56.108Z,17.76
2019-04-07T08:52:55.497Z,17.72
2019-04-07T08:53:55.455Z,17.54
2019-04-07T08:54:55.590Z,17.56
2019-04-07T08:55:55.456Z,17.41
2019-04-07T08:56:56.838Z,17.34
2019-04-07T08:57:56.255Z,17.38
2019-04-07T08:58:55.459Z,17.20
2019-04-07T08:59:56.244Z,17.12
2019-04-07T09:00:56.156Z,16.96
2019-04-07T09:01:55.852Z,16.97
2019-04-07T09:03:03.890Z,17.09
2019-04-07T09:03:56.069Z,17.11
2019-04-07T09:04:55.894Z,17.24
2019-04-07T09:05:57.364Z,17.06
2019-04-07T09:06:59.417Z,16.96
2019-04-07T09:07:55.842Z,17.01
2019-04-07T09:08:55.433Z,16.81
2019-04-07T09:09:55.579Z,16.75
2019-04-07T09:10:56.578Z,16.54
2019-04-07T09:11:57.274Z,16.35
2019-04-07T09:12:58.712Z,16.33
2019-04-07T09:13:55.962Z,16.23
2019-04-07T09:14:55.653Z,16.08
2019-04-07T09:15:55.663Z,16.10
2019-04-07T09:16:57.921Z,16.20
2019-04-07T09:17:55.639Z,16.41
2019-04-07T09:19:01.143Z,16.46
2019-04-07T09:19:55.424Z,16.43
2019-04-07T09:20:56.056Z,16.39
2019-04-07T09:21:55.895Z,16.38
2019-04-07T09:22:56.953Z,16.43
2019-04-07T09:23:56.542Z,16.31
2019-04-07T09:24:55.434Z,16.36
2019-04-07T09:25:56.194Z,16.74
2019-04-07T09:26:55.594Z,17.11
2019-04-07T09:27:55.807Z,17.34
2019-04-07T09:28:55.895Z,17.26
2019-04-07T09:29:55.815Z,17.09
2019-04-07T09:30:55.409Z,17.01
2019-04-07T09:31:55.398Z,17.08
2019-04-07T09:32:55.834Z,17.57
2019-04-07T09:33:56.170Z,17.65
2019-04-07T09:34:56.209Z,17.51
2019-04-07T09:35:58.759Z,17.39
2019-04-07T09:36:55.687Z,17.41
2019-04-07T09:37:55.987Z,17.56
2019-04-07T09:39:00.187Z,17.36
2019-04-07T09:39:59.523Z,17.27
2019-04-07T09:40:55.954Z,17.54
2019-04-07T09:41:55.625Z,17.92
2019-04-07T09:42:59.270Z,18.33
2019-04-07T09:43:55.378Z,18.40
2019-04-07T09:44:55.378Z,18.56
2019-04-07T09:45:55.414Z,19.08
2019-04-07T09:46:55.353Z,19.22
2019-04-07T09:47:56.436Z,19.24
2019-04-07T09:48:55.365Z,19.31
2019-04-07T09:49:56.702Z,19.19
2019-04-07T09:50:58.293Z,19.02
2019-04-07T09:51:55.358Z,19.08
2019-04-07T09:52:55.356Z,19.14
2019-04-07T09:53:55.468Z,19.33
2019-04-07T09:54:55.681Z,19.36
2019-04-07T09:55:57.256Z,19.34
2019-04-07T09:56:56.159Z,19.51
2019-04-07T09:57:56.001Z,19.44
2019-04-07T09:58:55.640Z,19.40
2019-04-07T09:59:56.296Z,19.39
2019-04-07T10:00:57.370Z,19.33
2019-04-07T10:01:59.284Z,19.22
2019-04-07T10:02:55.329Z,19.30
2019-04-07T10:03:55.336Z,19.29
2019-04-07T10:04:55.360Z,19.29
2019-04-07T10:05:55.353Z,19.36
2019-04-07T10:06:55.321Z,19.45
2019-04-07T10:07:55.334Z,19.59
2019-04-07T10:08:55.478Z,19.74
2019-04-07T10:10:07.599Z,19.66
2019-04-07T10:10:55.987Z,19.73
2019-04-07T10:11:55.503Z,19.79
2019-04-07T10:12:55.496Z,19.77
2019-04-07T10:13:55.453Z,20.02
2019-04-07T10:14:55.312Z,20.00
2019-04-07T10:15:55.319Z,20.02
2019-04-07T10:16:55.308Z,19.95
2019-04-07T10:17:55.488Z,19.86
2019-04-07T10:18:55.320Z,19.89
2019-04-07T10:19:55.303Z,19.77
2019-04-07T10:20:55.859Z,19.73
2019-04-07T10:21:55.995Z,19.86
2019-04-07T10:22:55.378Z,19.79
2019-04-07T10:23:55.334Z,19.88
2019-04-07T10:24:55.962Z,19.79
2019-04-07T10:25:56.090Z,19.84
2019-04-07T10:26:55.319Z,19.77
2019-04-07T10:27:55.617Z,19.92
2019-04-07T10:28:55.391Z,19.84
2019-04-07T10:29:55.663Z,19.86
2019-04-07T10:30:56.612Z,19.73
2019-04-07T10:31:55.371Z,19.73
2019-04-07T10:32:55.297Z,19.76
2019-04-07T10:33:55.289Z,19.82
2019-04-07T10:34:55.434Z,19.77
2019-04-07T10:35:55.285Z,19.86
2019-04-07T10:36:55.735Z,19.71
2019-04-07T10:37:55.290Z,19.79
2019-04-07T10:38:55.387Z,19.89
2019-04-07T10:39:57.354Z,19.92
2019-04-07T10:40:55.558Z,20.03
2019-04-07T10:41:55.365Z,19.85
2019-04-07T10:42:57.214Z,19.95
2019-04-07T10:43:55.812Z,19.86
2019-04-07T10:44:55.279Z,19.91
2019-04-07T10:45:55.974Z,19.94
2019-04-07T10:46:55.902Z,20.06
2019-04-07T10:47:55.273Z,20.26
2019-04-07T10:48:55.786Z,20.24
2019-04-07T10:50:00.648Z,20.10
2019-04-07T10:50:55.578Z,20.11
2019-04-07T10:51:55.273Z,20.16
2019-04-07T10:52:56.188Z,20.24
2019-04-07T10:53:56.132Z,20.06
2019-04-07T10:54:55.295Z,20.11
2019-04-07T10:55:55.274Z,20.07
2019-04-07T10:56:55.353Z,20.11
2019-04-07T10:57:55.260Z,20.06
2019-04-07T10:58:56.613Z,20.06
2019-04-07T10:59:55.750Z,20.03
2019-04-07T11:00:55.286Z,20.02
2019-04-07T11:01:55.258Z,20.13
2019-04-07T11:02:56.933Z,20.00
2019-04-07T11:03:56.420Z,20.07
2019-04-07T11:04:55.294Z,20.06
2019-04-07T11:05:55.256Z,20.04
2019-04-07T11:06:55.257Z,20.02
2019-04-07T11:07:55.866Z,20.06
2019-04-07T11:08:55.500Z,20.22
2019-04-07T11:09:55.279Z,20.26
2019-04-07T11:10:55.547Z,20.31
2019-04-07T11:11:55.255Z,20.31
2019-04-07T11:12:56.079Z,20.18
2019-04-07T11:13:55.451Z,20.22
2019-04-07T11:14:55.925Z,20.22
2019-04-07T11:15:55.276Z,20.13
2019-04-07T11:16:55.246Z,20.24
2019-04-07T11:17:55.987Z,20.26
2019-04-07T11:18:55.242Z,20.11
2019-04-07T11:19:55.248Z,20.21
2019-04-07T11:20:55.774Z,20.36
2019-04-07T11:21:55.573Z,20.36
2019-04-07T11:22:56.243Z,20.37
2019-04-07T11:23:55.251Z,20.47
2019-04-07T11:24:55.769Z,20.36
2019-04-07T11:25:56.016Z,20.40
2019-04-07T11:26:55.906Z,20.31
2019-04-07T11:27:55.321Z,20.55
2019-04-07T11:28:55.581Z,20.60
2019-04-07T11:29:55.235Z,20.80
2019-04-07T11:30:55.235Z,20.72
2019-04-07T11:31:55.247Z,20.67
2019-04-07T11:32:55.247Z,20.59
2019-04-07T11:33:55.531Z,20.50
2019-04-07T11:34:55.239Z,20.50
2019-04-07T11:35:55.234Z,20.66
2019-04-07T11:36:56.069Z,20.66
2019-04-07T11:37:55.397Z,20.62
2019-04-07T11:38:55.908Z,20.65
2019-04-07T11:39:55.239Z,20.58
2019-04-07T11:40:55.233Z,20.65
2019-04-07T11:41:55.759Z,20.62
2019-04-07T11:42:55.739Z,20.56
2019-04-07T11:43:55.233Z,20.66
2019-04-07T11:44:55.237Z,20.60
2019-04-07T11:46:00.072Z,20.52
2019-04-07T11:46:55.243Z,20.47
2019-04-07T11:47:55.233Z,20.55
2019-04-07T11:48:56.015Z,20.56
2019-04-07T11:49:55.304Z,20.56
2019-04-07T11:50:55.235Z,20.65
2019-04-07T11:51:55.549Z,20.81
2019-04-07T11:52:56.213Z,20.87
2019-04-07T11:53:55.229Z,20.82
2019-04-07T11:54:55.411Z,20.85
2019-04-07T11:55:55.225Z,20.65
2019-04-07T11:56:55.630Z,20.66
2019-04-07T11:58:09.472Z,20.75
2019-04-07T11:58:55.425Z,20.67
2019-04-07T11:59:55.630Z,20.51
2019-04-07T12:00:55.235Z,20.36
2019-04-07T12:01:55.345Z,20.29
2019-04-07T12:02:55.608Z,20.21
2019-04-07T12:03:55.810Z,20.04
2019-04-07T12:04:55.366Z,19.95
2019-04-07T12:05:55.250Z,19.95
2019-04-07T12:06:56.392Z,19.85
2019-04-07T12:07:58.142Z,19.63
2019-04-07T12:08:55.707Z,19.59
2019-04-07T12:09:56.853Z,19.55
2019-04-07T12:11:01.753Z,19.59
2019-04-07T12:11:55.417Z,19.55
2019-04-07T12:12:55.993Z,19.62
2019-04-07T12:13:55.221Z,19.51
2019-04-07T12:14:55.235Z,19.52
2019-04-07T12:15:56.689Z,19.44
2019-04-07T12:16:57.976Z,19.49
2019-04-07T12:17:55.662Z,19.48
2019-04-07T12:18:55.551Z,19.47
2019-04-07T12:19:56.885Z,19.48
2019-04-07T12:20:56.183Z,19.37
2019-04-07T12:21:55.980Z,19.40
2019-04-07T12:22:55.312Z,19.39
2019-04-07T12:23:55.415Z,19.33
2019-04-07T12:24:59.391Z,19.30
2019-04-07T12:25:55.773Z,19.39
2019-04-07T12:26:56.591Z,19.37
2019-04-07T12:27:56.014Z,19.41
2019-04-07T12:28:56.072Z,19.37
2019-04-07T12:29:55.222Z,19.39
2019-04-07T12:30:55.426Z,19.40
2019-04-07T12:31:55.407Z,19.29
2019-04-07T12:32:55.277Z,19.24
2019-04-07T12:33:55.203Z,19.29
2019-04-07T12:34:55.207Z,19.29
2019-04-07T12:35:56.337Z,19.41
2019-04-07T12:36:56.139Z,19.40
2019-04-07T12:37:58.016Z,19.41
2019-04-07T12:38:55.325Z,19.48
2019-04-07T12:39:55.511Z,19.82
2019-04-07T12:41:11.008Z,20.03
2019-04-07T12:41:57.837Z,19.96
2019-04-07T12:42:55.199Z,19.89
2019-04-07T12:43:55.258Z,20.00
2019-04-07T12:44:55.579Z,19.95
2019-04-07T12:45:55.201Z,20.04
2019-04-07T12:46:55.742Z,20.06
2019-04-07T12:47:55.332Z,20.13
2019-04-07T12:48:55.419Z,20.03
2019-04-07T12:49:55.441Z,19.88
2019-04-07T12:50:55.371Z,19.84
2019-04-07T12:51:56.075Z,19.84
2019-04-07T12:52:55.191Z,19.91
2019-04-07T12:53:55.194Z,19.89
2019-04-07T12:54:55.798Z,20.16
2019-04-07T12:55:59.088Z,20.28
2019-04-07T12:56:57.635Z,20.31
2019-04-07T12:57:55.492Z,20.36
2019-04-07T12:58:55.947Z,20.40
2019-04-07T12:59:55.202Z,20.31